sensor_id;sensor_type;location;lat;lon;timestamp;P1;durP1;ratioP1;P2;durP2;ratioP2
70008;SDS011;59542;37.950;-122.338;2022-11-20T00:00:11;6.55;;;3.75;;
70008;SDS011;59542;37.950;-122.338;2022-11-20T00:02:38;7.65;;;3.72;;
70008;SDS011;59542;37.950;-122.338;2022-11-20T00:05:04;7.32;;;3.08;;
70008;SDS011;59542;37.950;-122.338;2022-11-20T00:07:31;5.85;;;3.10;;
70008;SDS011;59542;37.950;-122.338;2022-11-20T00:09:57;5.22;;;3.45;;
70008;SDS011;59542;37.950;-122.338;2022-11-20T00:12:23;5.25;;;3.10;;
70008;SDS011;59542;37.950;-122.338;2022-11-20T00:14:49;6.45;;;3.25;;
70008;SDS011;59542;37.950;-122.338;2022-11-20T00:17:15;5.47;;;3.15;;
70008;SDS011;59542;37.950;-122.338;2022-11-20T00:19:42;5.80;;;3.28;;
70008;SDS011;59542;37.950;-122.338;2022-11-20T00:22:08;5.57;;;2.90;;
70008;SDS011;59542;37.950;-122.338;2022-11-20T00:24:34;5.20;;;2.70;;
70008;SDS011;59542;37.950;-122.338;2022-11-20T00:27:00;4.18;;;3.05;;
70008;SDS011;59542;37.950;-122.338;2022-11-20T00:29:26;5.65;;;2.97;;
70008;SDS011;59542;37.950;-122.338;2022-11-20T00:31:52;4.65;;;2.72;;
70008;SDS011;59542;37.950;-122.338;2022-11-20T00:34:19;6.10;;;2.65;;
70008;SDS011;59542;37.950;-122.338;2022-11-20T00:36:45;4.80;;;2.45;;
70008;SDS011;59542;37.950;-122.338;2022-11-20T00:39:11;4.35;;;2.50;;
70008;SDS011;59542;37.950;-122.338;2022-11-20T00:41:37;5.22;;;2.67;;
70008;SDS011;59542;37.950;-122.338;2022-11-20T00:44:03;6.53;;;2.47;;
70008;SDS011;59542;37.950;-122.338;2022-11-20T00:46:30;3.88;;;2.55;;
70008;SDS011;59542;37.950;-122.338;2022-11-20T00:48:56;5.53;;;2.55;;
70008;SDS011;59542;37.950;-122.338;2022-11-20T00:51:23;3.80;;;2.45;;
70008;SDS011;59542;37.950;-122.338;2022-11-20T00:53:51;3.92;;;2.40;;
70008;SDS011;59542;37.950;-122.338;2022-11-20T00:56:17;5.43;;;2.38;;
70008;SDS011;59542;37.950;-122.338;2022-11-20T00:58:45;5.32;;;2.55;;
70008;SDS011;59542;37.950;-122.338;2022-11-20T01:01:20;5.18;;;2.60;;
70008;SDS011;59542;37.950;-122.338;2022-11-20T01:03:52;3.92;;;2.67;;
70008;SDS011;59542;37.950;-122.338;2022-11-20T01:06:23;5.38;;;3.17;;
70008;SDS011;59542;37.950;-122.338;2022-11-20T01:08:55;5.80;;;2.83;;
70008;SDS011;59542;37.950;-122.338;2022-11-20T01:11:25;4.47;;;2.53;;
70008;SDS011;59542;37.950;-122.338;2022-11-20T01:13:53;7.38;;;2.83;;
70008;SDS011;59542;37.950;-122.338;2022-11-20T01:16:22;5.10;;;2.67;;
70008;SDS011;59542;37.950;-122.338;2022-11-20T01:18:51;3.53;;;2.53;;
70008;SDS011;59542;37.950;-122.338;2022-11-20T01:21:20;4.15;;;2.70;;
70008;SDS011;59542;37.950;-122.338;2022-11-20T01:23:51;5.32;;;2.92;;
70008;SDS011;59542;37.950;-122.338;2022-11-20T01:26:19;4.15;;;2.67;;
70008;SDS011;59542;37.950;-122.338;2022-11-20T01:28:46;5.93;;;2.30;;
70008;SDS011;59542;37.950;-122.338;2022-11-20T01:31:21;5.50;;;3.05;;
70008;SDS011;59542;37.950;-122.338;2022-11-20T01:33:50;5.03;;;3.25;;
70008;SDS011;59542;37.950;-122.338;2022-11-20T01:36:19;5.20;;;2.72;;
70008;SDS011;59542;37.950;-122.338;2022-11-20T01:38:46;6.28;;;3.25;;
70008;SDS011;59542;37.950;-122.338;2022-11-20T01:41:14;9.48;;;2.95;;
70008;SDS011;59542;37.950;-122.338;2022-11-20T01:44:01;6.78;;;3.45;;
70008;SDS011;59542;37.950;-122.338;2022-11-20T01:46:28;3.67;;;2.55;;
70008;SDS011;59542;37.950;-122.338;2022-11-20T01:48:58;3.45;;;2.38;;
70008;SDS011;59542;37.950;-122.338;2022-11-20T01:51:38;3.77;;;2.30;;
70008;SDS011;59542;37.950;-122.338;2022-11-20T01:54:17;5.72;;;2.65;;
70008;SDS011;59542;37.950;-122.338;2022-11-20T01:56:47;6.22;;;3.22;;
70008;SDS011;59542;37.950;-122.338;2022-11-20T01:59:17;4.35;;;2.63;;
70008;SDS011;59542;37.950;-122.338;2022-11-20T02:01:45;6.03;;;2.20;;
70008;SDS011;59542;37.950;-122.338;2022-11-20T02:04:12;4.53;;;2.50;;
70008;SDS011;59542;37.950;-122.338;2022-11-20T02:09:09;5.60;;;2.50;;
70008;SDS011;59542;37.950;-122.338;2022-11-20T02:11:37;3.45;;;2.00;;
70008;SDS011;59542;37.950;-122.338;2022-11-20T02:14:03;3.10;;;2.00;;
70008;SDS011;59542;37.950;-122.338;2022-11-20T02:16:37;5.43;;;2.67;;
70008;SDS011;59542;37.950;-122.338;2022-11-20T02:19:10;4.22;;;2.40;;
70008;SDS011;59542;37.950;-122.338;2022-11-20T02:21:47;5.10;;;2.45;;
70008;SDS011;59542;37.950;-122.338;2022-11-20T02:24:21;4.70;;;2.20;;
70008;SDS011;59542;37.950;-122.338;2022-11-20T02:26:59;3.33;;;2.50;;
70008;SDS011;59542;37.950;-122.338;2022-11-20T02:29:32;4.45;;;2.38;;
70008;SDS011;59542;37.950;-122.338;2022-11-20T02:32:02;4.13;;;1.85;;
70008;SDS011;59542;37.950;-122.338;2022-11-20T02:34:28;3.25;;;1.90;;
70008;SDS011;59542;37.950;-122.338;2022-11-20T02:36:55;3.60;;;2.25;;
70008;SDS011;59542;37.950;-122.338;2022-11-20T02:39:23;5.28;;;2.30;;
70008;SDS011;59542;37.950;-122.338;2022-11-20T02:41:54;3.53;;;2.08;;
70008;SDS011;59542;37.950;-122.338;2022-11-20T02:44:22;3.22;;;1.63;;
70008;SDS011;59542;37.950;-122.338;2022-11-20T02:46:48;3.45;;;1.60;;
70008;SDS011;59542;37.950;-122.338;2022-11-20T02:49:14;2.47;;;1.95;;
70008;SDS011;59542;37.950;-122.338;2022-11-20T02:51:42;4.00;;;2.00;;
70008;SDS011;59542;37.950;-122.338;2022-11-20T02:54:08;3.97;;;2.50;;
70008;SDS011;59542;37.950;-122.338;2022-11-20T02:56:34;3.30;;;1.67;;
70008;SDS011;59542;37.950;-122.338;2022-11-20T02:59:02;3.63;;;2.65;;
70008;SDS011;59542;37.950;-122.338;2022-11-20T03:01:29;5.60;;;3.17;;
70008;SDS011;59542;37.950;-122.338;2022-11-20T03:03:55;6.47;;;4.60;;
70008;SDS011;59542;37.950;-122.338;2022-11-20T03:06:22;4.55;;;2.30;;
70008;SDS011;59542;37.950;-122.338;2022-11-20T03:08:48;5.60;;;4.40;;
70008;SDS011;59542;37.950;-122.338;2022-11-20T03:11:14;6.55;;;5.57;;
70008;SDS011;59542;37.950;-122.338;2022-11-20T03:13:42;9.07;;;6.97;;
70008;SDS011;59542;37.950;-122.338;2022-11-20T03:16:09;4.70;;;3.15;;
70008;SDS011;59542;37.950;-122.338;2022-11-20T03:18:37;4.75;;;2.72;;
70008;SDS011;59542;37.950;-122.338;2022-11-20T03:21:04;4.07;;;3.67;;
70008;SDS011;59542;37.950;-122.338;2022-11-20T03:23:31;4.03;;;3.60;;
70008;SDS011;59542;37.950;-122.338;2022-11-20T03:28:48;6.72;;;5.25;;
70008;SDS011;59542;37.950;-122.338;2022-11-20T03:31:28;4.28;;;3.88;;
70008;SDS011;59542;37.950;-122.338;2022-11-20T03:33:56;3.45;;;3.10;;
70008;SDS011;59542;37.950;-122.338;2022-11-20T03:36:24;4.47;;;2.95;;
70008;SDS011;59542;37.950;-122.338;2022-11-20T03:38:52;6.50;;;3.08;;
70008;SDS011;59542;37.950;-122.338;2022-11-20T03:41:20;4.30;;;3.83;;
70008;SDS011;59542;37.950;-122.338;2022-11-20T03:43:52;4.00;;;3.58;;
70008;SDS011;59542;37.950;-122.338;2022-11-20T03:46:19;2.97;;;2.65;;
70008;SDS011;59542;37.950;-122.338;2022-11-20T03:48:46;3.40;;;2.47;;
70008;SDS011;59542;37.950;-122.338;2022-11-20T03:51:17;3.80;;;2.80;;
70008;SDS011;59542;37.950;-122.338;2022-11-20T03:53:48;6.05;;;2.65;;
70008;SDS011;59542;37.950;-122.338;2022-11-20T03:56:16;4.25;;;2.85;;
70008;SDS011;59542;37.950;-122.338;2022-11-20T03:58:44;3.08;;;2.42;;
70008;SDS011;59542;37.950;-122.338;2022-11-20T04:01:12;3.58;;;2.00;;
70008;SDS011;59542;37.950;-122.338;2022-11-20T04:03:40;3.33;;;2.63;;
70008;SDS011;59542;37.950;-122.338;2022-11-20T04:06:08;3.45;;;2.45;;
70008;SDS011;59542;37.950;-122.338;2022-11-20T04:08:35;2.72;;;2.17;;
70008;SDS011;59542;37.950;-122.338;2022-11-20T04:13:51;2.55;;;1.88;;
70008;SDS011;59542;37.950;-122.338;2022-11-20T04:16:19;2.28;;;1.95;;
70008;SDS011;59542;37.950;-122.338;2022-11-20T04:18:50;3.55;;;2.45;;
70008;SDS011;59542;37.950;-122.338;2022-11-20T04:21:26;3.63;;;2.42;;
70008;SDS011;59542;37.950;-122.338;2022-11-20T04:23:53;2.95;;;1.80;;
70008;SDS011;59542;37.950;-122.338;2022-11-20T04:26:21;4.28;;;1.98;;
70008;SDS011;59542;37.950;-122.338;2022-11-20T04:28:49;3.42;;;1.83;;
70008;SDS011;59542;37.950;-122.338;2022-11-20T04:31:16;3.92;;;1.92;;
70008;SDS011;59542;37.950;-122.338;2022-11-20T04:33:47;4.00;;;2.20;;
70008;SDS011;59542;37.950;-122.338;2022-11-20T04:36:15;5.78;;;2.80;;
70008;SDS011;59542;37.950;-122.338;2022-11-20T04:38:43;4.57;;;3.10;;
70008;SDS011;59542;37.950;-122.338;2022-11-20T04:41:17;5.55;;;3.03;;
70008;SDS011;59542;37.950;-122.338;2022-11-20T04:43:51;5.10;;;2.87;;
70008;SDS011;59542;37.950;-122.338;2022-11-20T04:46:24;6.00;;;3.28;;
70008;SDS011;59542;37.950;-122.338;2022-11-20T04:48:52;5.43;;;3.55;;
70008;SDS011;59542;37.950;-122.338;2022-11-20T04:51:18;5.13;;;3.20;;
70008;SDS011;59542;37.950;-122.338;2022-11-20T04:53:44;4.63;;;3.15;;
70008;SDS011;59542;37.950;-122.338;2022-11-20T04:56:11;5.80;;;3.58;;
70008;SDS011;59542;37.950;-122.338;2022-11-20T04:58:38;6.15;;;3.85;;
70008;SDS011;59542;37.950;-122.338;2022-11-20T05:01:06;6.20;;;3.50;;
70008;SDS011;59542;37.950;-122.338;2022-11-20T05:03:43;5.50;;;3.13;;
70008;SDS011;59542;37.950;-122.338;2022-11-20T05:06:11;5.95;;;3.80;;
70008;SDS011;59542;37.950;-122.338;2022-11-20T05:08:39;6.57;;;4.30;;
70008;SDS011;59542;37.950;-122.338;2022-11-20T05:11:10;7.43;;;4.70;;
70008;SDS011;59542;37.950;-122.338;2022-11-20T05:13:38;8.23;;;4.38;;
70008;SDS011;59542;37.950;-122.338;2022-11-20T05:16:05;4.65;;;3.50;;
70008;SDS011;59542;37.950;-122.338;2022-11-20T05:18:34;5.85;;;3.88;;
70008;SDS011;59542;37.950;-122.338;2022-11-20T05:21:01;6.93;;;4.43;;
70008;SDS011;59542;37.950;-122.338;2022-11-20T05:23:28;7.60;;;4.13;;
70008;SDS011;59542;37.950;-122.338;2022-11-20T05:25:55;6.85;;;4.35;;
70008;SDS011;59542;37.950;-122.338;2022-11-20T05:28:23;6.30;;;3.88;;
70008;SDS011;59542;37.950;-122.338;2022-11-20T05:30:50;5.85;;;3.47;;
70008;SDS011;59542;37.950;-122.338;2022-11-20T05:33:16;5.80;;;3.72;;
70008;SDS011;59542;37.950;-122.338;2022-11-20T05:35:43;5.80;;;4.05;;
70008;SDS011;59542;37.950;-122.338;2022-11-20T05:38:09;5.22;;;3.72;;
70008;SDS011;59542;37.950;-122.338;2022-11-20T05:40:36;6.55;;;4.20;;
70008;SDS011;59542;37.950;-122.338;2022-11-20T05:43:02;5.68;;;3.90;;
70008;SDS011;59542;37.950;-122.338;2022-11-20T05:45:28;8.32;;;4.20;;
70008;SDS011;59542;37.950;-122.338;2022-11-20T05:47:57;6.72;;;3.92;;
70008;SDS011;59542;37.950;-122.338;2022-11-20T05:50:25;5.75;;;3.40;;
70008;SDS011;59542;37.950;-122.338;2022-11-20T05:52:53;7.32;;;4.10;;
70008;SDS011;59542;37.950;-122.338;2022-11-20T05:55:19;5.93;;;4.50;;
70008;SDS011;59542;37.950;-122.338;2022-11-20T05:57:45;5.72;;;4.55;;
70008;SDS011;59542;37.950;-122.338;2022-11-20T06:00:11;7.88;;;4.63;;
70008;SDS011;59542;37.950;-122.338;2022-11-20T06:02:38;8.43;;;4.35;;
70008;SDS011;59542;37.950;-122.338;2022-11-20T06:05:05;6.40;;;4.60;;
70008;SDS011;59542;37.950;-122.338;2022-11-20T06:07:31;7.20;;;4.78;;
70008;SDS011;59542;37.950;-122.338;2022-11-20T06:09:57;8.55;;;5.43;;
70008;SDS011;59542;37.950;-122.338;2022-11-20T06:12:23;6.15;;;4.80;;
70008;SDS011;59542;37.950;-122.338;2022-11-20T06:14:49;10.32;;;5.35;;
70008;SDS011;59542;37.950;-122.338;2022-11-20T06:17:16;9.68;;;5.28;;
70008;SDS011;59542;37.950;-122.338;2022-11-20T06:19:42;8.05;;;5.63;;
70008;SDS011;59542;37.950;-122.338;2022-11-20T06:22:08;7.70;;;5.05;;
70008;SDS011;59542;37.950;-122.338;2022-11-20T06:24:35;8.40;;;4.65;;
70008;SDS011;59542;37.950;-122.338;2022-11-20T06:27:01;7.63;;;5.07;;
70008;SDS011;59542;37.950;-122.338;2022-11-20T06:29:27;9.32;;;4.90;;
70008;SDS011;59542;37.950;-122.338;2022-11-20T06:31:54;7.32;;;4.50;;
70008;SDS011;59542;37.950;-122.338;2022-11-20T06:34:20;7.22;;;5.07;;
70008;SDS011;59542;37.950;-122.338;2022-11-20T06:36:46;6.95;;;4.55;;
70008;SDS011;59542;37.950;-122.338;2022-11-20T06:39:12;8.50;;;5.53;;
70008;SDS011;59542;37.950;-122.338;2022-11-20T06:41:38;8.50;;;4.63;;
70008;SDS011;59542;37.950;-122.338;2022-11-20T06:44:05;7.18;;;5.05;;
70008;SDS011;59542;37.950;-122.338;2022-11-20T06:46:31;9.30;;;5.30;;
70008;SDS011;59542;37.950;-122.338;2022-11-20T06:48:57;7.95;;;5.53;;
70008;SDS011;59542;37.950;-122.338;2022-11-20T06:51:23;6.78;;;5.18;;
70008;SDS011;59542;37.950;-122.338;2022-11-20T06:53:50;10.82;;;5.88;;
70008;SDS011;59542;37.950;-122.338;2022-11-20T06:56:16;8.48;;;5.55;;
70008;SDS011;59542;37.950;-122.338;2022-11-20T06:58:42;9.98;;;6.30;;
70008;SDS011;59542;37.950;-122.338;2022-11-20T07:01:10;10.88;;;5.93;;
70008;SDS011;59542;37.950;-122.338;2022-11-20T07:03:38;11.13;;;5.20;;
70008;SDS011;59542;37.950;-122.338;2022-11-20T07:06:05;7.60;;;5.50;;
70008;SDS011;59542;37.950;-122.338;2022-11-20T07:08:31;11.40;;;5.90;;
70008;SDS011;59542;37.950;-122.338;2022-11-20T07:10:58;10.40;;;5.75;;
70008;SDS011;59542;37.950;-122.338;2022-11-20T07:13:27;7.85;;;5.25;;
70008;SDS011;59542;37.950;-122.338;2022-11-20T07:15:54;8.65;;;5.47;;
70008;SDS011;59542;37.950;-122.338;2022-11-20T07:18:20;7.82;;;5.30;;
70008;SDS011;59542;37.950;-122.338;2022-11-20T07:20:47;9.43;;;5.70;;
70008;SDS011;59542;37.950;-122.338;2022-11-20T07:23:13;8.98;;;5.07;;
70008;SDS011;59542;37.950;-122.338;2022-11-20T07:25:39;8.35;;;5.32;;
70008;SDS011;59542;37.950;-122.338;2022-11-20T07:28:05;10.00;;;5.95;;
70008;SDS011;59542;37.950;-122.338;2022-11-20T07:30:31;8.40;;;5.45;;
70008;SDS011;59542;37.950;-122.338;2022-11-20T07:32:58;9.77;;;5.50;;
70008;SDS011;59542;37.950;-122.338;2022-11-20T07:35:24;8.75;;;5.30;;
70008;SDS011;59542;37.950;-122.338;2022-11-20T07:37:50;9.55;;;5.85;;
70008;SDS011;59542;37.950;-122.338;2022-11-20T07:40:17;10.18;;;5.53;;
70008;SDS011;59542;37.950;-122.338;2022-11-20T07:42:50;9.95;;;5.75;;
70008;SDS011;59542;37.950;-122.338;2022-11-20T07:45:18;9.13;;;5.90;;
70008;SDS011;59542;37.950;-122.338;2022-11-20T07:47:45;8.13;;;5.57;;
70008;SDS011;59542;37.950;-122.338;2022-11-20T07:50:12;7.25;;;5.30;;
70008;SDS011;59542;37.950;-122.338;2022-11-20T07:52:39;8.32;;;5.15;;
70008;SDS011;59542;37.950;-122.338;2022-11-20T07:55:05;9.63;;;5.35;;
70008;SDS011;59542;37.950;-122.338;2022-11-20T07:57:33;7.82;;;5.75;;
70008;SDS011;59542;37.950;-122.338;2022-11-20T07:59:59;10.18;;;5.45;;
70008;SDS011;59542;37.950;-122.338;2022-11-20T08:02:25;8.73;;;5.40;;
70008;SDS011;59542;37.950;-122.338;2022-11-20T08:04:51;8.05;;;5.43;;
70008;SDS011;59542;37.950;-122.338;2022-11-20T08:07:17;8.80;;;5.60;;
70008;SDS011;59542;37.950;-122.338;2022-11-20T08:09:44;9.02;;;5.15;;
70008;SDS011;59542;37.950;-122.338;2022-11-20T08:12:16;8.63;;;5.03;;
70008;SDS011;59542;37.950;-122.338;2022-11-20T08:15:04;7.32;;;5.47;;
70008;SDS011;59542;37.950;-122.338;2022-11-20T08:17:30;8.45;;;5.50;;
70008;SDS011;59542;37.950;-122.338;2022-11-20T08:19:57;8.07;;;5.47;;
70008;SDS011;59542;37.950;-122.338;2022-11-20T08:22:23;8.73;;;5.55;;
70008;SDS011;59542;37.950;-122.338;2022-11-20T08:24:50;8.93;;;5.60;;
70008;SDS011;59542;37.950;-122.338;2022-11-20T08:27:16;10.60;;;5.53;;
70008;SDS011;59542;37.950;-122.338;2022-11-20T08:29:42;9.18;;;6.15;;
70008;SDS011;59542;37.950;-122.338;2022-11-20T08:32:09;10.13;;;5.75;;
70008;SDS011;59542;37.950;-122.338;2022-11-20T08:34:35;7.68;;;5.68;;
70008;SDS011;59542;37.950;-122.338;2022-11-20T08:37:01;8.48;;;5.82;;
70008;SDS011;59542;37.950;-122.338;2022-11-20T08:39:28;10.43;;;6.30;;
70008;SDS011;59542;37.950;-122.338;2022-11-20T08:41:54;8.10;;;5.82;;
70008;SDS011;59542;37.950;-122.338;2022-11-20T08:44:20;10.95;;;6.10;;
70008;SDS011;59542;37.950;-122.338;2022-11-20T08:46:46;10.63;;;6.35;;
70008;SDS011;59542;37.950;-122.338;2022-11-20T08:49:13;8.50;;;5.95;;
70008;SDS011;59542;37.950;-122.338;2022-11-20T08:51:40;10.45;;;5.97;;
70008;SDS011;59542;37.950;-122.338;2022-11-20T08:54:07;9.65;;;5.85;;
70008;SDS011;59542;37.950;-122.338;2022-11-20T08:56:33;9.10;;;5.65;;
70008;SDS011;59542;37.950;-122.338;2022-11-20T08:59:00;9.68;;;6.03;;
70008;SDS011;59542;37.950;-122.338;2022-11-20T09:01:27;9.05;;;5.57;;
70008;SDS011;59542;37.950;-122.338;2022-11-20T09:03:57;9.85;;;5.72;;
70008;SDS011;59542;37.950;-122.338;2022-11-20T09:06:25;6.32;;;5.18;;
70008;SDS011;59542;37.950;-122.338;2022-11-20T09:08:52;10.57;;;5.97;;
70008;SDS011;59542;37.950;-122.338;2022-11-20T09:11:18;10.27;;;6.13;;
70008;SDS011;59542;37.950;-122.338;2022-11-20T09:13:44;10.48;;;5.70;;
70008;SDS011;59542;37.950;-122.338;2022-11-20T09:16:11;8.90;;;5.70;;
70008;SDS011;59542;37.950;-122.338;2022-11-20T09:18:37;8.90;;;6.28;;
70008;SDS011;59542;37.950;-122.338;2022-11-20T09:21:10;10.20;;;6.10;;
70008;SDS011;59542;37.950;-122.338;2022-11-20T09:23:38;10.85;;;6.57;;
70008;SDS011;59542;37.950;-122.338;2022-11-20T09:26:04;11.13;;;5.90;;
70008;SDS011;59542;37.950;-122.338;2022-11-20T09:28:32;9.88;;;6.15;;
70008;SDS011;59542;37.950;-122.338;2022-11-20T09:30:58;8.48;;;6.05;;
70008;SDS011;59542;37.950;-122.338;2022-11-20T09:33:25;9.95;;;6.28;;
70008;SDS011;59542;37.950;-122.338;2022-11-20T09:35:52;11.13;;;6.22;;
70008;SDS011;59542;37.950;-122.338;2022-11-20T09:38:18;8.52;;;5.82;;
70008;SDS011;59542;37.950;-122.338;2022-11-20T09:40:45;8.82;;;6.07;;
70008;SDS011;59542;37.950;-122.338;2022-11-20T09:43:23;8.43;;;6.18;;
70008;SDS011;59542;37.950;-122.338;2022-11-20T09:46:17;13.05;;;7.15;;
70008;SDS011;59542;37.950;-122.338;2022-11-20T09:56:44;7.32;;;5.35;;
70008;SDS011;59542;37.950;-122.338;2022-11-20T10:02:15;10.40;;;6.03;;
70008;SDS011;59542;37.950;-122.338;2022-11-20T10:05:06;10.82;;;6.13;;
70008;SDS011;59542;37.950;-122.338;2022-11-20T10:07:52;10.48;;;6.15;;
70008;SDS011;59542;37.950;-122.338;2022-11-20T10:10:35;13.30;;;6.15;;
70008;SDS011;59542;37.950;-122.338;2022-11-20T10:18:54;10.13;;;6.85;;
70008;SDS011;59542;37.950;-122.338;2022-11-20T10:21:52;10.32;;;6.57;;
70008;SDS011;59542;37.950;-122.338;2022-11-20T10:27:32;9.90;;;6.60;;
70008;SDS011;59542;37.950;-122.338;2022-11-20T10:30:06;11.10;;;6.32;;
70008;SDS011;59542;37.950;-122.338;2022-11-20T10:32:45;10.57;;;6.10;;
70008;SDS011;59542;37.950;-122.338;2022-11-20T10:35:24;9.80;;;6.32;;
70008;SDS011;59542;37.950;-122.338;2022-11-20T10:38:09;9.80;;;6.40;;
70008;SDS011;59542;37.950;-122.338;2022-11-20T10:40:54;12.98;;;7.03;;
70008;SDS011;59542;37.950;-122.338;2022-11-20T10:43:44;14.80;;;7.05;;
70008;SDS011;59542;37.950;-122.338;2022-11-20T10:46:14;10.82;;;7.07;;
70008;SDS011;59542;37.950;-122.338;2022-11-20T10:48:43;9.93;;;6.75;;
70008;SDS011;59542;37.950;-122.338;2022-11-20T10:59:12;11.98;;;7.10;;
70008;SDS011;59542;37.950;-122.338;2022-11-20T11:01:52;12.50;;;7.65;;
70008;SDS011;59542;37.950;-122.338;2022-11-20T11:10:05;11.10;;;6.50;;
70008;SDS011;59542;37.950;-122.338;2022-11-20T11:12:45;15.13;;;7.20;;
70008;SDS011;59542;37.950;-122.338;2022-11-20T11:15:58;10.98;;;6.85;;
70008;SDS011;59542;37.950;-122.338;2022-11-20T11:18:04;13.27;;;7.03;;
70008;SDS011;59542;37.950;-122.338;2022-11-20T11:20:30;10.07;;;6.43;;
70008;SDS011;59542;37.950;-122.338;2022-11-20T11:22:58;11.80;;;6.82;;
70008;SDS011;59542;37.950;-122.338;2022-11-20T11:25:31;11.80;;;7.00;;
70008;SDS011;59542;37.950;-122.338;2022-11-20T11:28:00;8.50;;;6.25;;
70008;SDS011;59542;37.950;-122.338;2022-11-20T11:30:40;12.18;;;7.07;;
70008;SDS011;59542;37.950;-122.338;2022-11-20T11:33:18;10.55;;;7.30;;
70008;SDS011;59542;37.950;-122.338;2022-11-20T11:35:47;11.65;;;6.85;;
70008;SDS011;59542;37.950;-122.338;2022-11-20T11:38:39;10.75;;;6.88;;
70008;SDS011;59542;37.950;-122.338;2022-11-20T11:41:15;11.93;;;6.90;;
70008;SDS011;59542;37.950;-122.338;2022-11-20T11:43:55;11.35;;;7.30;;
70008;SDS011;59542;37.950;-122.338;2022-11-20T11:46:52;10.70;;;6.72;;
70008;SDS011;59542;37.950;-122.338;2022-11-20T11:49:21;10.70;;;6.95;;
70008;SDS011;59542;37.950;-122.338;2022-11-20T11:51:54;10.88;;;7.18;;
70008;SDS011;59542;37.950;-122.338;2022-11-20T11:54:30;11.98;;;7.40;;
70008;SDS011;59542;37.950;-122.338;2022-11-20T12:13:18;10.65;;;7.20;;
70008;SDS011;59542;37.950;-122.338;2022-11-20T12:15:51;15.38;;;7.40;;
70008;SDS011;59542;37.950;-122.338;2022-11-20T12:18:18;11.82;;;7.40;;
70008;SDS011;59542;37.950;-122.338;2022-11-20T12:21:05;11.25;;;6.85;;
70008;SDS011;59542;37.950;-122.338;2022-11-20T12:23:53;11.68;;;7.22;;
70008;SDS011;59542;37.950;-122.338;2022-11-20T12:29:02;10.60;;;7.40;;
70008;SDS011;59542;37.950;-122.338;2022-11-20T12:31:37;12.05;;;7.43;;
70008;SDS011;59542;37.950;-122.338;2022-11-20T12:34:37;14.75;;;7.90;;
70008;SDS011;59542;37.950;-122.338;2022-11-20T12:37:24;13.25;;;7.30;;
70008;SDS011;59542;37.950;-122.338;2022-11-20T12:46:08;10.75;;;7.53;;
70008;SDS011;59542;37.950;-122.338;2022-11-20T12:48:49;16.20;;;7.25;;
70008;SDS011;59542;37.950;-122.338;2022-11-20T12:51:40;10.70;;;7.22;;
70008;SDS011;59542;37.950;-122.338;2022-11-20T13:00:15;13.90;;;7.55;;
70008;SDS011;59542;37.950;-122.338;2022-11-20T13:06:38;11.05;;;7.47;;
70008;SDS011;59542;37.950;-122.338;2022-11-20T13:08:39;13.75;;;7.57;;
70008;SDS011;59542;37.950;-122.338;2022-11-20T13:13:43;14.25;;;7.70;;
70008;SDS011;59542;37.950;-122.338;2022-11-20T13:19:25;14.10;;;7.60;;
70008;SDS011;59542;37.950;-122.338;2022-11-20T13:21:52;12.95;;;7.53;;
70008;SDS011;59542;37.950;-122.338;2022-11-20T13:26:44;12.85;;;7.97;;
70008;SDS011;59542;37.950;-122.338;2022-11-20T13:29:12;12.43;;;7.05;;
70008;SDS011;59542;37.950;-122.338;2022-11-20T13:31:45;18.05;;;7.95;;
70008;SDS011;59542;37.950;-122.338;2022-11-20T13:34:22;11.82;;;7.68;;
70008;SDS011;59542;37.950;-122.338;2022-11-20T13:36:52;12.80;;;8.02;;
70008;SDS011;59542;37.950;-122.338;2022-11-20T13:42:00;12.00;;;7.65;;
70008;SDS011;59542;37.950;-122.338;2022-11-20T13:44:42;14.40;;;8.45;;
70008;SDS011;59542;37.950;-122.338;2022-11-20T13:47:20;14.35;;;7.63;;
70008;SDS011;59542;37.950;-122.338;2022-11-20T13:49:51;12.70;;;7.65;;
70008;SDS011;59542;37.950;-122.338;2022-11-20T13:57:52;15.15;;;6.70;;
70008;SDS011;59542;37.950;-122.338;2022-11-20T14:00:25;11.48;;;6.28;;
70008;SDS011;59542;37.950;-122.338;2022-11-20T14:03:02;10.25;;;6.32;;
70008;SDS011;59542;37.950;-122.338;2022-11-20T14:05:46;11.85;;;6.72;;
70008;SDS011;59542;37.950;-122.338;2022-11-20T14:11:19;15.57;;;6.93;;
70008;SDS011;59542;37.950;-122.338;2022-11-20T14:14:13;11.07;;;6.88;;
70008;SDS011;59542;37.950;-122.338;2022-11-20T14:16:41;10.85;;;7.03;;
70008;SDS011;59542;37.950;-122.338;2022-11-20T14:21:54;9.52;;;6.03;;
70008;SDS011;59542;37.950;-122.338;2022-11-20T14:24:32;11.32;;;5.65;;
70008;SDS011;59542;37.950;-122.338;2022-11-20T14:26:58;12.85;;;5.95;;
70008;SDS011;59542;37.950;-122.338;2022-11-20T14:29:28;8.98;;;5.32;;
70008;SDS011;59542;37.950;-122.338;2022-11-20T14:32:00;9.52;;;6.05;;
70008;SDS011;59542;37.950;-122.338;2022-11-20T14:34:29;7.90;;;5.63;;
70008;SDS011;59542;37.950;-122.338;2022-11-20T14:37:02;11.48;;;6.10;;
70008;SDS011;59542;37.950;-122.338;2022-11-20T14:39:34;12.40;;;5.68;;
70008;SDS011;59542;37.950;-122.338;2022-11-20T14:42:10;8.57;;;5.50;;
70008;SDS011;59542;37.950;-122.338;2022-11-20T14:44:46;8.55;;;5.45;;
70008;SDS011;59542;37.950;-122.338;2022-11-20T14:47:15;8.13;;;5.75;;
70008;SDS011;59542;37.950;-122.338;2022-11-20T14:49:45;9.23;;;5.75;;
70008;SDS011;59542;37.950;-122.338;2022-11-20T14:52:16;9.95;;;5.07;;
70008;SDS011;59542;37.950;-122.338;2022-11-20T14:54:48;9.38;;;5.85;;
70008;SDS011;59542;37.950;-122.338;2022-11-20T14:57:23;8.25;;;5.47;;
70008;SDS011;59542;37.950;-122.338;2022-11-20T15:02:54;8.73;;;5.30;;
70008;SDS011;59542;37.950;-122.338;2022-11-20T15:05:24;7.65;;;5.07;;
70008;SDS011;59542;37.950;-122.338;2022-11-20T15:08:10;9.27;;;5.35;;
70008;SDS011;59542;37.950;-122.338;2022-11-20T15:10:37;8.05;;;5.18;;
70008;SDS011;59542;37.950;-122.338;2022-11-20T15:13:05;7.53;;;5.10;;
70008;SDS011;59542;37.950;-122.338;2022-11-20T15:18:27;9.93;;;6.00;;
70008;SDS011;59542;37.950;-122.338;2022-11-20T15:20:57;10.82;;;5.28;;
70008;SDS011;59542;37.950;-122.338;2022-11-20T15:23:27;9.88;;;5.43;;
70008;SDS011;59542;37.950;-122.338;2022-11-20T15:25:54;11.25;;;6.00;;
70008;SDS011;59542;37.950;-122.338;2022-11-20T15:28:23;9.82;;;5.93;;
70008;SDS011;59542;37.950;-122.338;2022-11-20T15:30:55;12.48;;;6.00;;
70008;SDS011;59542;37.950;-122.338;2022-11-20T15:33:22;11.52;;;5.63;;
70008;SDS011;59542;37.950;-122.338;2022-11-20T15:35:48;10.30;;;6.03;;
70008;SDS011;59542;37.950;-122.338;2022-11-20T15:38:14;10.13;;;6.00;;
70008;SDS011;59542;37.950;-122.338;2022-11-20T15:40:40;10.90;;;5.78;;
70008;SDS011;59542;37.950;-122.338;2022-11-20T15:43:07;10.05;;;5.18;;
70008;SDS011;59542;37.950;-122.338;2022-11-20T15:48:11;8.60;;;5.32;;
70008;SDS011;59542;37.950;-122.338;2022-11-20T15:50:46;7.03;;;4.78;;
70008;SDS011;59542;37.950;-122.338;2022-11-20T15:53:20;8.43;;;4.90;;
70008;SDS011;59542;37.950;-122.338;2022-11-20T15:55:46;7.93;;;5.28;;
70008;SDS011;59542;37.950;-122.338;2022-11-20T15:58:12;9.68;;;5.13;;
70008;SDS011;59542;37.950;-122.338;2022-11-20T16:00:38;7.82;;;5.20;;
70008;SDS011;59542;37.950;-122.338;2022-11-20T16:03:05;6.32;;;4.53;;
70008;SDS011;59542;37.950;-122.338;2022-11-20T16:05:34;8.70;;;4.95;;
70008;SDS011;59542;37.950;-122.338;2022-11-20T16:08:00;8.27;;;5.00;;